Time;durP1;ratioP1;P1;durP2;ratioP2;P2;SDS_P1;SDS_P2;PMS_P1;PMS_P2;Temp;Humidity;BMP_temperature;BMP_pressure;BME280_temperature;BME280_humidity;BME280_pressure;Samples;Min_cycle;Max_cycle;Signal;HPM_P1;HPM_P2
2022/06/17 00:01:24;;;;;;;2.65;2.30;;;18.60;52.10;;;;;;5036059;28;20025;-75
2022/06/17 00:03:51;;;;;;;3.47;1.88;;;18.50;51.60;;;;;;5036171;28;20021;-76
2022/06/17 00:06:21;;;;;;;3.10;2.33;;;18.40;51.50;;;;;;5036164;28;20050;-77
2022/06/17 00:08:49;;;;;;;3.38;2.10;;;18.30;52.60;;;;;;5036403;28;20135;-76
2022/06/17 00:11:27;;;;;;;4.75;2.08;;;18.30;52.50;;;;;;5036355;28;20056;-77
2022/06/17 00:13:53;;;;;;;7.93;2.47;;;18.40;52.60;;;;;;5036149;28;20053;-76
2022/06/17 00:16:21;;;;;;;3.10;2.33;;;18.50;52.20;;;;;;5036077;28;20064;-76
2022/06/17 00:18:46;;;;;;;3.50;1.98;;;18.50;52.60;;;;;;5035772;28;20029;-77
2022/06/17 00:21:34;;;;;;;4.35;2.33;;;18.60;52.10;;;;;;5035976;28;20037;-76
2022/06/17 00:24:01;;;;;;;3.33;2.00;;;18.60;52.00;;;;;;5035923;28;20025;-77
2022/06/17 00:26:27;;;;;;;2.85;2.00;;;18.40;50.00;;;;;;5036040;28;20099;-76
2022/06/17 00:28:53;;;;;;;2.97;1.90;;;18.40;50.30;;;;;;5035888;28;20485;-76
2022/06/17 00:31:19;;;;;;;5.32;2.03;;;18.40;50.90;;;;;;5035671;28;20056;-76
2022/06/17 00:33:45;;;;;;;3.17;2.17;;;18.40;51.40;;;;;;5035859;28;20029;-76
2022/06/17 00:36:16;;;;;;;6.88;2.17;;;18.40;50.90;;;;;;5035716;28;20025;-75
2022/06/17 00:38:43;;;;;;;4.43;2.22;;;18.40;50.30;;;;;;5035282;28;20080;-75
2022/06/17 00:41:30;;;;;;;3.47;2.10;;;18.50;50.70;;;;;;5035678;28;20059;-75
2022/06/17 00:43:59;;;;;;;3.75;2.10;;;18.50;49.90;;;;;;5035968;28;20466;-76
2022/06/17 00:46:38;;;;;;;2.72;1.95;;;18.50;50.00;;;;;;5035519;28;20021;-75
2022/06/17 00:49:29;;;;;;;3.40;2.40;;;18.50;49.80;;;;;;5035565;28;20032;-76
2022/06/17 00:52:02;;;;;;;3.08;2.00;;;18.40;50.10;;;;;;5035703;28;20028;-75
2022/06/17 00:54:51;;;;;;;3.35;1.77;;;18.40;49.80;;;;;;5035417;28;20082;-76
2022/06/17 00:57:20;;;;;;;3.28;2.10;;;18.30;50.20;;;;;;5035111;28;20087;-76
2022/06/17 01:00:05;;;;;;;4.28;2.05;;;18.20;50.30;;;;;;5035386;28;20036;-76
2022/06/17 01:02:37;;;;;;;4.53;1.83;;;18.20;49.60;;;;;;5035411;28;20025;-76
2022/06/17 01:05:04;;;;;;;6.65;1.90;;;18.10;50.20;;;;;;5035119;28;20033;-77
2022/06/17 01:07:36;;;;;;;2.85;2.13;;;18.00;50.40;;;;;;5035366;28;20025;-77
2022/06/17 01:10:09;;;;;;;4.40;1.80;;;17.70;50.80;;;;;;5035190;28;20051;-75
2022/06/17 01:13:05;;;;;;;2.35;2.08;;;17.60;51.30;;;;;;5035153;28;20155;-76
2022/06/17 01:15:32;;;;;;;;;;;17.50;52.40;;;;;;5035648;28;20037;-75
2022/06/17 01:17:58;;;;;;;4.35;2.38;;;17.40;51.50;;;;;;5035328;28;19911;-75
2022/06/17 01:20:25;;;;;;;5.22;2.35;;;17.30;52.20;;;;;;5035286;28;20362;-77
2022/06/17 01:22:52;;;;;;;6.03;2.30;;;17.20;52.80;;;;;;5035238;28;20028;-76
2022/06/17 01:25:28;;;;;;;6.20;1.98;;;17.10;53.10;;;;;;5035243;28;20473;-76
2022/06/17 01:27:57;;;;;;;3.70;2.40;;;17.10;53.30;;;;;;5035031;28;20108;-76
2022/06/17 01:30:39;;;;;;;3.05;1.88;;;17.10;53.70;;;;;;5034826;28;20021;-75
2022/06/17 01:33:09;;;;;;;3.70;1.83;;;17.10;53.50;;;;;;5035507;28;20144;-76
2022/06/17 01:35:58;;;;;;;4.13;2.13;;;17.00;53.50;;;;;;5034986;28;20021;-74
2022/06/17 01:38:25;;;;;;;3.95;2.05;;;16.90;54.10;;;;;;5044730;28;20176;-75
2022/06/17 01:40:53;;;;;;;4.70;1.92;;;16.90;54.20;;;;;;5014872;28;20084;-75
2022/06/17 01:43:21;;;;;;;4.88;2.35;;;16.80;53.90;;;;;;5031393;28;20386;-75
2022/06/17 01:45:54;;;;;;;2.75;1.77;;;16.80;54.20;;;;;;5032999;28;20041;-74
2022/06/17 01:48:23;;;;;;;3.17;2.13;;;16.80;53.70;;;;;;5014996;28;20036;-75
2022/06/17 01:50:51;;;;;;;2.20;1.98;;;16.80;53.80;;;;;;5015336;28;20033;-75
2022/06/17 01:53:23;;;;;;;2.53;1.88;;;16.80;53.70;;;;;;5015133;28;20029;-77
2022/06/17 01:55:54;;;;;;;4.05;2.08;;;16.70;54.30;;;;;;5014874;28;20381;-75
2022/06/17 01:58:40;;;;;;;6.03;2.45;;;16.70;54.60;;;;;;5031231;28;20043;-76
2022/06/17 02:01:07;;;;;;;3.20;2.35;;;16.40;54.90;;;;;;5015327;28;20033;-75
2022/06/17 02:03:38;;;;;;;2.78;2.00;;;16.20;55.80;;;;;;5015258;28;20029;-77
2022/06/17 02:06:12;;;;;;;5.25;2.42;;;16.00;56.50;;;;;;4998377;28;20030;-76
2022/06/17 02:08:37;;;;;;;3.00;2.25;;;16.00;57.10;;;;;;5015079;28;20025;-76
2022/06/17 02:11:05;;;;;;;3.67;1.80;;;16.00;56.70;;;;;;5031494;28;20025;-76
2022/06/17 02:13:32;;;;;;;3.78;2.30;;;16.10;56.60;;;;;;5014890;28;20386;-76
2022/06/17 02:16:03;;;;;;;3.85;2.13;;;16.20;56.60;;;;;;5031226;28;20037;-76
2022/06/17 02:18:30;;;;;;;3.97;1.92;;;16.20;56.70;;;;;;5014572;28;20018;-76
2022/06/17 02:21:00;;;;;;;4.63;2.40;;;16.30;57.10;;;;;;5014791;28;20036;-76
2022/06/17 02:23:27;;;;;;;3.88;2.40;;;16.30;56.70;;;;;;5031300;28;20104;-76
2022/06/17 02:25:54;;;;;;;3.75;2.33;;;16.30;56.30;;;;;;5016131;28;20033;-76
2022/06/17 02:28:22;;;;;;;4.78;2.00;;;16.30;56.50;;;;;;5035026;28;20036;-76
2022/06/17 02:30:49;;;;;;;4.10;2.00;;;16.30;56.30;;;;;;5034774;28;20080;-76
2022/06/17 02:33:16;;;;;;;4.15;2.20;;;16.20;56.30;;;;;;5034584;28;20028;-77
2022/06/17 02:35:54;;;;;;;2.22;1.73;;;16.20;56.40;;;;;;5018297;28;20033;-76
2022/06/17 02:38:25;;;;;;;3.10;2.28;;;16.20;56.70;;;;;;5024128;28;20047;-76
2022/06/17 02:40:53;;;;;;;3.30;2.03;;;16.20;56.80;;;;;;5037847;28;20040;-76
2022/06/17 02:43:22;;;;;;;2.80;1.98;;;16.30;56.80;;;;;;5037848;28;20025;-76
2022/06/17 02:46:01;;;;;;;2.53;1.85;;;16.30;56.30;;;;;;5037700;28;20053;-76
2022/06/17 02:48:30;;;;;;;3.20;1.98;;;16.20;56.20;;;;;;5037882;28;20025;-76
2022/06/17 02:50:59;;;;;;;4.68;2.00;;;16.20;56.40;;;;;;5037714;28;20029;-76
2022/06/17 02:53:34;;;;;;;3.30;2.28;;;16.10;56.50;;;;;;5037518;28;20025;-76
2022/06/17 02:56:03;;;;;;;5.00;2.53;;;16.10;56.40;;;;;;5037854;28;20029;-76
2022/06/17 02:58:55;;;;;;;5.07;2.40;;;16.10;56.50;;;;;;5037923;28;20036;-76
2022/06/17 03:01:24;;;;;;;2.03;1.70;;;16.10;56.90;;;;;;5037887;28;20032;-76
2022/06/17 03:03:51;;;;;;;4.28;1.95;;;16.00;56.70;;;;;;5037650;28;20033;-76
2022/06/17 03:06:33;;;;;;;6.50;2.42;;;16.10;56.80;;;;;;5037304;28;20028;-76
2022/06/17 03:09:13;;;;;;;5.43;2.15;;;16.10;56.70;;;;;;5037523;28;20112;-76
2022/06/17 03:11:39;;;;;;;4.90;2.33;;;16.00;56.50;;;;;;5037434;28;20025;-76
2022/06/17 03:14:08;;;;;;;3.08;2.25;;;15.90;57.30;;;;;;5037248;28;20024;-76
2022/06/17 03:16:35;;;;;;;5.90;2.45;;;15.90;57.50;;;;;;5037056;28;20424;-76
2022/06/17 03:19:02;;;;;;;2.85;1.77;;;15.90;57.50;;;;;;5037056;28;20119;-74
2022/06/17 03:21:28;;;;;;;5.10;1.90;;;15.80;57.50;;;;;;5037317;28;20025;-74
2022/06/17 03:24:14;;;;;;;4.70;2.08;;;15.80;58.30;;;;;;5037033;28;20027;-74
2022/06/17 03:26:49;;;;;;;4.72;2.10;;;15.80;57.90;;;;;;5036881;28;20063;-74
2022/06/17 03:29:18;;;;;;;3.67;2.13;;;15.80;58.20;;;;;;5037247;28;20028;-74
2022/06/17 03:31:50;;;;;;;4.60;2.42;;;15.90;58.10;;;;;;5036919;28;20032;-74
2022/06/17 03:34:25;;;;;;;5.05;2.80;;;15.80;58.00;;;;;;5036898;28;20039;-74
2022/06/17 03:37:03;;;;;;;4.68;2.50;;;15.80;58.00;;;;;;5035157;28;20117;-74
2022/06/17 03:39:46;;;;;;;2.78;2.33;;;15.80;58.30;;;;;;5020991;28;20056;-74
2022/06/17 03:42:33;;;;;;;5.28;2.50;;;15.90;58.00;;;;;;5016930;28;20026;-74
2022/06/17 03:45:03;;;;;;;3.42;2.28;;;15.90;57.70;;;;;;5033358;28;20033;-75
2022/06/17 03:48:05;;;;;;;7.28;2.20;;;15.80;57.70;;;;;;5032986;28;20112;-75
2022/06/17 03:50:38;;;;;;;3.17;2.17;;;15.70;58.20;;;;;;5016716;28;20033;-75
2022/06/17 03:53:22;;;;;;;3.95;2.03;;;15.70;58.40;;;;;;5016698;28;20374;-76
2022/06/17 03:55:48;;;;;;;4.45;2.17;;;15.70;58.30;;;;;;5033151;28;20021;-75
2022/06/17 03:58:17;;;;;;;4.80;1.98;;;15.70;57.80;;;;;;5033035;28;20093;-75
2022/06/17 04:00:47;;;;;;;4.50;2.08;;;15.80;57.60;;;;;;5033342;28;20089;-75
2022/06/17 04:03:19;;;;;;;2.88;2.03;;;15.80;57.50;;;;;;5016754;28;20029;-75
2022/06/17 04:05:50;;;;;;;3.67;2.08;;;15.80;57.80;;;;;;5016761;28;20112;-75
2022/06/17 04:08:16;;;;;;;2.72;1.85;;;15.90;58.70;;;;;;5016354;28;20560;-75
2022/06/17 04:10:42;;;;;;;3.97;2.00;;;16.00;57.90;;;;;;5032834;28;20041;-76
2022/06/17 04:13:13;;;;;;;2.60;2.17;;;16.00;57.80;;;;;;5016314;28;20057;-75
2022/06/17 04:15:58;;;;;;;2.75;2.25;;;16.00;58.10;;;;;;5016524;28;20036;-75
2022/06/17 04:18:23;;;;;;;2.60;2.05;;;15.90;58.20;;;;;;5032687;28;20129;-75
2022/06/17 04:20:55;;;;;;;5.32;2.25;;;15.90;58.20;;;;;;5016222;28;20461;-75
2022/06/17 04:23:24;;;;;;;3.95;2.53;;;15.80;57.80;;;;;;5032474;28;20055;-75
2022/06/17 04:26:16;;;;;;;5.25;2.10;;;16.00;57.20;;;;;;5032860;28;20026;-76
2022/06/17 04:28:48;;;;;;;3.80;2.28;;;16.00;57.10;;;;;;5015916;28;20017;-76
2022/06/17 04:31:20;;;;;;;2.88;1.98;;;16.10;57.00;;;;;;5032751;28;20029;-75
2022/06/17 04:33:50;;;;;;;3.10;1.98;;;16.20;56.60;;;;;;5015960;28;20068;-75
2022/06/17 04:36:25;;;;;;;3.28;2.00;;;16.40;56.30;;;;;;5016014;28;20021;-76
2022/06/17 04:39:06;;;;;;;2.47;1.83;;;16.60;56.00;;;;;;5026246;28;20064;-76
2022/06/17 04:41:36;;;;;;;4.60;1.98;;;16.80;55.40;;;;;;5035879;28;20060;-75
2022/06/17 04:44:05;;;;;;;2.25;1.80;;;16.90;55.10;;;;;;5034888;28;20120;-75
2022/06/17 04:46:39;;;;;;;3.22;2.03;;;17.10;54.70;;;;;;5035186;28;20029;-76
2022/06/17 04:49:13;;;;;;;4.55;2.20;;;17.10;54.60;;;;;;5034758;28;20028;-75
2022/06/17 04:51:39;;;;;;;1.70;1.55;;;17.20;54.30;;;;;;5035253;28;20513;-75
2022/06/17 04:54:05;;;;;;;2.20;1.60;;;17.30;54.10;;;;;;5035402;28;20144;-75
2022/06/17 04:56:38;;;;;;;1.58;1.48;;;17.40;53.80;;;;;;5035114;28;20112;-74
2022/06/17 04:59:33;;;;;;;3.15;1.70;;;17.50;53.50;;;;;;5035572;28;20060;-75
2022/06/17 05:02:00;;;;;;;2.95;2.05;;;17.60;53.20;;;;;;5035474;28;20021;-75
2022/06/17 05:04:27;;;;;;;3.15;2.05;;;17.70;53.30;;;;;;5035182;28;20048;-76
2022/06/17 05:06:53;;;;;;;3.35;2.10;;;17.70;53.60;;;;;;5035080;28;20048;-76
2022/06/17 05:09:30;;;;;;;5.35;1.92;;;17.80;53.60;;;;;;5035134;28;20548;-75
2022/06/17 05:12:01;;;;;;;2.22;1.95;;;18.00;53.10;;;;;;5035161;28;20478;-76
2022/06/17 05:14:51;;;;;;;4.32;2.10;;;18.00;52.70;;;;;;5034902;28;20124;-75
2022/06/17 05:17:16;;;;;;;4.60;2.22;;;18.10;52.70;;;;;;5034998;28;20025;-76
2022/06/17 05:19:42;;;;;;;5.28;2.20;;;18.10;52.50;;;;;;5035031;28;20096;-77
2022/06/17 05:22:15;;;;;;;3.00;2.00;;;18.20;52.20;;;;;;5035340;28;20017;-77
2022/06/17 05:24:42;;;;;;;3.03;2.00;;;18.20;51.80;;;;;;5035235;28;20055;-77
2022/06/17 05:27:08;;;;;;;5.80;2.13;;;18.20;50.90;;;;;;5035218;28;20032;-77
2022/06/17 05:29:33;;;;;;;2.90;2.10;;;18.10;50.60;;;;;;5034974;28;20477;-76
2022/06/17 05:31:59;;;;;;;2.83;2.25;;;18.20;50.90;;;;;;5034947;28;20048;-77
2022/06/17 05:34:25;;;;;;;3.05;1.60;;;18.30;50.70;;;;;;5034779;28;20021;-76
2022/06/17 05:36:52;;;;;;;2.03;1.75;;;18.50;50.30;;;;;;5034890;28;20152;-77
2022/06/17 05:39:18;;;;;;;4.40;1.83;;;18.70;49.80;;;;;;5034809;28;20078;-77
2022/06/17 05:41:43;;;;;;;1.90;1.70;;;18.80;49.60;;;;;;5035188;28;20374;-77
2022/06/17 05:44:09;;;;;;;3.50;1.90;;;18.90;49.90;;;;;;5035036;28;20047;-78
2022/06/17 05:46:34;;;;;;;3.47;2.03;;;19.00;50.20;;;;;;5034776;28;20032;-77
2022/06/17 05:49:02;;;;;;;2.47;1.88;;;19.10;50.70;;;;;;5034690;28;20025;-78
2022/06/17 05:51:27;;;;;;;4.57;2.00;;;19.20;50.50;;;;;;5034646;28;20050;-78
2022/06/17 05:53:53;;;;;;;2.55;1.58;;;19.20;51.00;;;;;;5034511;28;20398;-77
2022/06/17 05:56:18;;;;;;;3.72;2.45;;;19.30;49.80;;;;;;5034541;28;20021;-77
2022/06/17 05:58:44;;;;;;;6.13;2.05;;;19.30;49.20;;;;;;5034353;28;20029;-78
2022/06/17 06:01:10;;;;;;;6.47;2.30;;;19.40;44.80;;;;;;5036916;28;20478;-77
2022/06/17 06:03:35;;;;;;;4.07;2.47;;;19.50;45.30;;;;;;5038368;28;20025;-77
2022/06/17 06:06:01;;;;;;;2.97;2.00;;;19.50;45.90;;;;;;5038260;28;20020;-77
2022/06/17 06:08:27;;;;;;;3.55;2.22;;;19.60;44.60;;;;;;5037765;28;20040;-77
2022/06/17 06:10:53;;;;;;;3.55;2.33;;;19.60;44.70;;;;;;5037797;28;20025;-77
2022/06/17 06:13:20;;;;;;;6.20;2.22;;;19.70;44.50;;;;;;5038305;28;20091;-79
2022/06/17 06:15:49;;;;;;;3.90;2.45;;;19.70;44.30;;;;;;5038060;28;20040;-80
2022/06/17 06:18:22;;;;;;;3.58;1.83;;;19.50;44.40;;;;;;5038402;28;20124;-79
2022/06/17 06:20:48;;;;;;;3.20;1.92;;;19.60;44.00;;;;;;5038083;28;20040;-79
2022/06/17 06:23:14;;;;;;;5.55;2.28;;;19.80;43.70;;;;;;5038006;28;20025;-77
2022/06/17 06:25:40;;;;;;;4.85;1.85;;;20.00;43.40;;;;;;5055863;28;20029;-77
2022/06/17 06:28:16;;;;;;;2.78;1.83;;;20.30;42.90;;;;;;5037640;28;20048;-78
2022/06/17 06:30:42;;;;;;;3.70;1.70;;;20.40;42.30;;;;;;5037813;28;20032;-77
2022/06/17 06:33:09;;;;;;;2.78;2.42;;;20.50;41.80;;;;;;5037703;28;20025;-78
2022/06/17 06:35:37;;;;;;;3.97;2.83;;;20.70;40.90;;;;;;5037488;28;20032;-78
2022/06/17 06:38:04;;;;;;;3.58;1.55;;;20.90;40.10;;;;;;5037576;28;20513;-78
2022/06/17 06:40:31;;;;;;;5.45;1.50;;;20.90;39.20;;;;;;5037423;28;20033;-75
2022/06/17 06:42:57;;;;;;;7.40;2.15;;;21.00;39.30;;;;;;5037474;28;20393;-75
2022/06/17 06:45:32;;;;;;;4.68;1.70;;;21.00;40.30;;;;;;5037940;28;20029;-78
2022/06/17 06:48:01;;;;;;;2.50;1.77;;;21.00;38.90;;;;;;5037346;28;20021;-78
2022/06/17 06:50:32;;;;;;;2.55;1.73;;;21.00;38.30;;;;;;5036074;28;20037;-77
2022/06/17 06:52:58;;;;;;;6.45;1.95;;;21.10;39.00;;;;;;5037624;28;20036;-78
2022/06/17 06:55:24;;;;;;;3.83;1.75;;;21.20;39.00;;;;;;5037017;28;20068;-80
2022/06/17 06:57:53;;;;;;;2.72;1.88;;;21.30;39.80;;;;;;5055538;28;20021;-79
2022/06/17 07:00:23;;;;;;;4.00;1.90;;;21.60;38.60;;;;;;5020811;28;20032;-78
2022/06/17 07:02:50;;;;;;;3.30;1.42;;;21.80;38.90;;;;;;5054982;28;20025;-83
2022/06/17 07:05:15;;;;;;;3.30;1.58;;;21.90;38.90;;;;;;5036731;28;20029;-79
2022/06/17 07:07:42;;;;;;;2.30;1.70;;;22.10;38.20;;;;;;5036977;28;20041;-79
2022/06/17 07:10:16;;;;;;;3.42;1.83;;;22.30;38.00;;;;;;5036805;28;20060;-82
2022/06/17 07:12:41;;;;;;;4.07;1.60;;;22.50;36.90;;;;;;5036817;28;20109;-79
2022/06/17 07:15:09;;;;;;;1.88;1.55;;;22.70;36.80;;;;;;5036932;28;20492;-81
2022/06/17 07:17:35;;;;;;;3.90;1.98;;;22.90;36.10;;;;;;5036871;28;20039;-85
2022/06/17 07:20:01;;;;;;;2.85;1.60;;;23.00;35.80;;;;;;5036588;28;20036;-85
2022/06/17 07:22:27;;;;;;;2.70;1.42;;;23.20;35.00;;;;;;5054819;28;20079;-82
2022/06/17 07:24:53;;;;;;;3.25;1.75;;;23.10;35.60;;;;;;5054677;28;20048;-80
2022/06/17 07:27:21;;;;;;;3.60;1.45;;;23.20;36.00;;;;;;5036584;28;20096;-82
2022/06/17 07:29:47;;;;;;;3.83;2.08;;;23.30;35.80;;;;;;5036817;28;20477;-82
2022/06/17 07:32:13;;;;;;;2.60;1.90;;;23.40;35.90;;;;;;5053541;28;20052;-84
2022/06/17 07:34:38;;;;;;;5.25;2.33;;;23.50;35.90;;;;;;5037423;28;20352;-85
2022/06/17 07:39:54;;;;;;;5.82;2.17;;;23.30;35.10;;;;;;5054669;28;20500;-84
2022/06/17 07:42:39;;;;;;;1.95;1.40;;;23.40;36.00;;;;;;5037029;28;20044;-82
2022/06/17 07:45:13;;;;;;;3.05;1.80;;;23.20;35.80;;;;;;5036914;28;20025;-82
2022/06/17 07:47:43;;;;;;;1.92;1.50;;;23.30;36.60;;;;;;5052875;28;20437;-80
2022/06/17 07:50:13;;;;;;;3.00;1.60;;;23.40;35.80;;;;;;5052703;28;20021;-80
2022/06/17 07:52:39;;;;;;;5.97;2.22;;;23.40;35.40;;;;;;5053056;28;20121;-82
2022/06/17 07:55:06;;;;;;;3.75;2.05;;;23.40;35.80;;;;;;5036422;28;20442;-79
2022/06/17 07:57:32;;;;;;;4.82;1.77;;;23.60;35.80;;;;;;5036171;28;20029;-80
2022/06/17 07:59:58;;;;;;;2.63;1.92;;;23.70;35.60;;;;;;5036280;28;20409;-82
2022/06/17 08:02:25;;;;;;;3.15;2.00;;;23.40;36.50;;;;;;5038195;28;20025;-83
2022/06/17 08:04:51;;;;;;;5.03;3.75;;;23.50;35.60;;;;;;5036809;28;20021;-83
2022/06/17 08:07:18;;;;;;;4.13;2.17;;;23.20;35.20;;;;;;5037241;28;20071;-82
2022/06/17 08:09:44;;;;;;;2.78;1.85;;;23.30;36.50;;;;;;5036304;28;20068;-81
2022/06/17 08:12:13;;;;;;;3.40;1.67;;;23.00;36.10;;;;;;5037040;28;20168;-82
2022/06/17 08:14:47;;;;;;;4.03;2.50;;;23.00;36.00;;;;;;5040275;28;20025;-81
2022/06/17 08:17:15;;;;;;;4.57;1.90;;;22.90;35.80;;;;;;5036102;28;20025;-82
2022/06/17 08:19:41;;;;;;;3.90;1.95;;;22.90;36.60;;;;;;5052714;28;20033;-81
2022/06/17 08:22:07;;;;;;;2.58;1.77;;;22.70;36.40;;;;;;5052459;28;20017;-81
2022/06/17 08:24:34;;;;;;;3.22;1.63;;;22.80;36.40;;;;;;5051857;28;20576;-83
2022/06/17 08:27:00;;;;;;;2.65;1.52;;;23.00;36.30;;;;;;5052118;28;20111;-78
2022/06/17 08:29:27;;;;;;;3.88;1.80;;;23.30;36.40;;;;;;5035256;28;20060;-77
2022/06/17 08:31:53;;;;;;;3.80;2.08;;;23.60;36.30;;;;;;5035897;28;20033;-77
2022/06/17 08:34:18;;;;;;;3.63;1.80;;;23.70;36.00;;;;;;5035314;28;20441;-77
2022/06/17 08:36:45;;;;;;;4.20;1.40;;;23.70;35.50;;;;;;5052360;28;20025;-77
2022/06/17 08:39:13;;;;;;;5.28;1.60;;;23.80;35.00;;;;;;5052260;28;20172;-76
2022/06/17 08:41:52;;;;;;;2.80;1.85;;;23.80;34.10;;;;;;5035196;28;20029;-77
2022/06/17 08:44:29;;;;;;;2.33;1.75;;;23.80;33.90;;;;;;5035375;28;20033;-78
2022/06/17 08:47:17;;;;;;;4.50;2.03;;;23.80;34.30;;;;;;5035153;28;20028;-76
2022/06/17 08:49:54;;;;;;;3.85;2.03;;;23.90;34.50;;;;;;5051421;28;20120;-77
2022/06/17 08:52:30;;;;;;;5.22;1.95;;;24.00;35.30;;;;;;5035184;28;20060;-82
2022/06/17 08:55:25;;;;;;;7.47;1.77;;;24.10;34.50;;;;;;5034847;28;20087;-82
2022/06/17 08:58:13;;;;;;;2.90;1.60;;;24.20;33.80;;;;;;5033698;28;20013;-81
2022/06/17 09:00:51;;;;;;;3.35;1.58;;;24.10;34.80;;;;;;5015119;28;20503;-81
2022/06/17 09:03:40;;;;;;;3.33;1.60;;;24.20;34.50;;;;;;5031924;28;20029;-82
2022/06/17 09:07:25;;;;;;;3.15;1.25;;;24.10;34.30;;;;;;5015420;28;20025;-81
2022/06/17 09:10:32;;;;;;;1.88;1.50;;;24.30;34.40;;;;;;5013956;28;20036;-82
2022/06/17 09:13:45;;;;;;;3.80;1.60;;;24.70;34.30;;;;;;4958631;28;20035;-83
2022/06/17 09:17:04;;;;;;;4.45;1.58;;;24.90;32.90;;;;;;5031460;28;20034;-82
2022/06/17 09:19:32;;;;;;;2.67;1.38;;;25.00;32.20;;;;;;5030223;28;20104;-82
2022/06/17 09:22:16;;;;;;;5.22;1.77;;;24.90;32.50;;;;;;5015575;28;20113;-81
2022/06/17 09:25:26;;;;;;;2.85;1.40;;;24.70;32.50;;;;;;5015349;28;20057;-83
2022/06/17 09:28:54;;;;;;;3.95;1.75;;;24.70;33.40;;;;;;5034353;28;20025;-83
2022/06/17 09:32:06;;;;;;;4.55;1.73;;;24.70;33.80;;;;;;5020435;28;20025;-83
2022/06/17 09:34:58;;;;;;;2.55;1.45;;;24.80;33.30;;;;;;5018173;28;20080;-82
2022/06/17 09:37:47;;;;;;;6.80;1.67;;;25.10;33.10;;;;;;5037017;28;20033;-82
2022/06/17 09:40:21;;;;;;;1.17;1.08;;;25.40;30.50;;;;;;4999497;28;20058;-82
2022/06/17 09:43:44;;;;;;;4.70;1.48;;;25.60;29.40;;;;;;5016836;28;20030;-82
2022/06/17 09:46:21;;;;;;;3.30;1.40;;;25.80;30.90;;;;;;4997719;28;20042;-81
2022/06/17 09:49:15;;;;;;;13.75;1.98;;;25.90;31.60;;;;;;4998535;28;20026;-80
2022/06/17 09:51:43;;;;;;;1.88;1.30;;;25.80;32.50;;;;;;5015405;28;20114;-80
2022/06/17 09:54:18;;;;;;;9.18;1.50;;;25.90;32.00;;;;;;4999010;28;20463;-83
2022/06/17 09:57:22;;;;;;;2.87;1.77;;;26.10;31.80;;;;;;5015415;28;20032;-82
2022/06/17 09:59:55;;;;;;;3.22;1.65;;;26.20;30.80;;;;;;4982496;28;20034;-82
2022/06/17 10:02:59;;;;;;;1.15;1.00;;;26.10;29.20;;;;;;4996404;28;20069;-82
2022/06/17 10:05:48;;;;;;;2.28;1.30;;;26.00;28.00;;;;;;4994308;28;20041;-80
2022/06/17 10:08:53;;;;;;;5.47;1.50;;;26.00;25.90;;;;;;5014916;28;20474;-81
2022/06/17 10:11:58;;;;;;;;;;;26.00;28.30;;;;;;5015585;28;20076;-80
2022/06/17 10:15:36;;;;;;;2.72;1.13;;;26.30;30.00;;;;;;4994188;28;19963;-80
2022/06/17 10:19:12;;;;;;;2.60;1.55;;;26.80;28.20;;;;;;4998406;28;20041;-81
2022/06/17 10:21:51;;;;;;;2.10;1.10;;;27.10;25.10;;;;;;4936177;29;20075;-82
2022/06/17 10:24:41;;;;;;;2.90;1.73;;;27.30;24.40;;;;;;4936269;29;20056;-81
2022/06/17 10:27:14;;;;;;;1.38;1.08;;;27.50;25.40;;;;;;4936416;29;20031;-80
2022/06/17 10:30:08;;;;;;;2.88;0.70;;;27.30;23.90;;;;;;4936298;29;20024;-80
2022/06/17 10:32:38;;;;;;;1.63;0.93;;;27.20;24.30;;;;;;5008683;28;20212;-80
2022/06/17 10:35:25;;;;;;;13.15;1.33;;;27.20;23.00;;;;;;5014867;28;20029;-80
2022/06/17 10:37:53;;;;;;;0.70;0.70;;;27.00;21.90;;;;;;4998391;28;20037;-80
2022/06/17 10:40:25;;;;;;;2.10;0.82;;;26.90;22.00;;;;;;5017952;28;20052;-79
2022/06/17 10:42:57;;;;;;;1.00;0.95;;;26.90;22.20;;;;;;5034022;28;20044;-79
2022/06/17 10:45:23;;;;;;;1.45;1.10;;;27.10;23.90;;;;;;5017551;28;20034;-79
2022/06/17 10:48:08;;;;;;;0.85;0.80;;;27.40;23.90;;;;;;5016980;28;20520;-78
2022/06/17 10:50:34;;;;;;;2.42;1.00;;;27.60;20.20;;;;;;5034170;28;20018;-79
2022/06/17 10:53:20;;;;;;;1.95;0.70;;;27.80;20.70;;;;;;5017164;28;20048;-77
2022/06/17 10:55:51;;;;;;;2.47;0.40;;;27.90;18.70;;;;;;5034035;28;20116;-78
2022/06/17 10:58:29;;;;;;;1.90;0.60;;;27.90;17.20;;;;;;5017378;28;20390;-79
2022/06/17 11:01:11;;;;;;;1.77;0.60;;;27.80;16.60;;;;;;5016819;28;20033;-78
2022/06/17 11:03:39;;;;;;;1.70;0.57;;;28.00;18.30;;;;;;5016038;28;20030;-77
2022/06/17 11:06:24;;;;;;;0.63;0.63;;;27.90;18.10;;;;;;5017196;28;20425;-80
2022/06/17 11:08:59;;;;;;;2.63;0.70;;;28.10;18.70;;;;;;5017033;28;20426;-80
2022/06/17 11:14:46;;;;;;;0.38;0.38;;;28.50;19.00;;;;;;5035329;28;20128;-81
2022/06/17 11:17:44;;;;;;;1.02;0.60;;;28.70;17.80;;;;;;5017556;28;20513;-81
2022/06/17 11:20:24;;;;;;;1.13;0.95;;;28.40;18.90;;;;;;5017868;28;20033;-79
2022/06/17 11:22:55;;;;;;;1.15;0.68;;;28.40;18.90;;;;;;5035031;28;20098;-79
2022/06/17 11:26:02;;;;;;;4.53;0.90;;;28.20;19.00;;;;;;5017669;28;20682;-84
2022/06/17 11:28:39;;;;;;;1.25;0.45;;;28.20;18.70;;;;;;5026727;28;20040;-83
2022/06/17 11:31:22;;;;;;;1.05;0.40;;;28.40;18.00;;;;;;5017097;28;20029;-79
2022/06/17 11:33:55;;;;;;;1.27;0.60;;;28.40;16.90;;;;;;5016788;28;20072;-80
2022/06/17 11:36:37;;;;;;;2.65;0.70;;;28.40;18.20;;;;;;5033638;28;20056;-81
2022/06/17 11:39:32;;;;;;;3.22;0.70;;;28.40;17.70;;;;;;5006936;28;20077;-79
2022/06/17 11:42:00;;;;;;;1.38;0.70;;;28.50;17.30;;;;;;5014929;28;20037;-79
2022/06/17 11:44:26;;;;;;;1.70;0.52;;;28.50;17.90;;;;;;4997712;28;20385;-80
2022/06/17 11:46:56;;;;;;;1.05;0.60;;;28.80;17.80;;;;;;4996988;28;20030;-80
2022/06/17 11:49:35;;;;;;;0.75;0.55;;;28.70;16.80;;;;;;4996600;28;20030;-80
2022/06/17 11:52:06;;;;;;;1.80;0.40;;;28.90;16.30;;;;;;4997241;28;20026;-79
2022/06/17 11:54:39;;;;;;;1.05;0.55;;;29.00;16.70;;;;;;4997320;28;20029;-81
2022/06/17 11:57:51;;;;;;;3.08;0.50;;;29.00;16.20;;;;;;5015626;28;20038;-85
2022/06/17 12:04:38;;;;;;;1.40;0.40;;;29.30;13.80;;;;;;4951309;28;20033;-81
2022/06/17 12:07:46;;;;;;;4.15;0.60;;;29.50;14.50;;;;;;4987526;28;20026;-84
2022/06/17 12:10:36;;;;;;;1.65;0.65;;;29.80;15.40;;;;;;4999048;28;20024;-79
2022/06/17 12:13:45;;;;;;;2.58;0.30;;;30.00;16.00;;;;;;5017687;28;20026;-83
2022/06/17 12:16:28;;;;;;;2.38;0.52;;;29.90;14.40;;;;;;4935134;29;20122;-79
2022/06/17 12:18:58;;;;;;;0.90;0.30;;;30.10;15.30;;;;;;4991011;28;20034;-80
2022/06/17 12:22:02;;;;;;;0.20;0.20;;;30.10;15.10;;;;;;5037662;28;20038;-86
2022/06/17 12:24:45;;;;;;;2.53;0.65;;;30.40;15.90;;;;;;5033904;28;20085;-76
2022/06/17 12:27:10;;;;;;;2.85;0.70;;;30.40;14.80;;;;;;5036316;28;20077;-75
2022/06/17 12:30:15;;;;;;;2.38;0.57;;;30.40;15.10;;;;;;5037041;28;20018;-81
2022/06/17 12:33:26;;;;;;;2.08;0.52;;;30.50;15.50;;;;;;5036121;28;20033;-82
2022/06/17 12:36:29;;;;;;;2.50;0.70;;;30.70;16.80;;;;;;5022904;28;20060;-82
2022/06/17 13:01:05;;;;;;;0.90;0.70;;;31.60;16.10;;;;;;5054308;28;20115;-87
2022/06/17 13:04:38;;;;;;;2.53;0.70;;;31.40;16.20;;;;;;5020067;28;20042;-82
2022/06/17 13:07:57;;;;;;;0.82;0.60;;;31.50;16.40;;;;;;4984119;28;20121;-83
2022/06/17 13:14:42;;;;;;;2.35;0.85;;;31.60;17.00;;;;;;4990266;28;20459;-81
2022/06/17 13:17:51;;;;;;;2.55;0.90;;;31.70;18.30;;;;;;4941911;29;20043;-83
2022/06/17 17:44:14;;;;;;;1.98;0.77;;;30.50;17.80;;;;;;5051819;28;20409;-84
2022/06/17 17:46:40;;;;;;;1.85;0.80;;;30.40;18.20;;;;;;5034797;28;20040;-80
2022/06/17 17:49:13;;;;;;;1.45;1.00;;;30.40;18.70;;;;;;5034177;28;20120;-81
2022/06/17 17:51:39;;;;;;;1.05;0.60;;;30.30;19.00;;;;;;5018478;28;20052;-82
2022/06/17 17:54:05;;;;;;;0.82;0.60;;;30.30;19.30;;;;;;5034038;28;20485;-82
2022/06/17 17:56:31;;;;;;;0.55;0.55;;;30.30;19.20;;;;;;5036174;28;20424;-78
2022/06/17 17:58:59;;;;;;;1.27;0.73;;;30.10;19.30;;;;;;5038498;28;20036;-80
2022/06/17 18:01:39;;;;;;;2.00;0.70;;;30.10;19.80;;;;;;5038498;28;20064;-78
2022/06/17 18:04:07;;;;;;;2.00;0.75;;;30.00;19.80;;;;;;5038341;28;20021;-79
2022/06/17 18:06:34;;;;;;;0.90;0.60;;;29.90;19.50;;;;;;5038645;28;20029;-78
2022/06/17 18:09:00;;;;;;;0.70;0.70;;;29.70;19.80;;;;;;5038356;28;20029;-78
2022/06/17 18:11:30;;;;;;;1.77;1.00;;;29.60;20.40;;;;;;5032630;28;20053;-78
2022/06/17 18:13:59;;;;;;;0.88;0.77;;;29.50;20.70;;;;;;5046110;28;20029;-79
2022/06/17 18:16:25;;;;;;;1.13;0.90;;;29.40;20.90;;;;;;5031622;28;20029;-77
2022/06/17 18:18:54;;;;;;;1.17;0.60;;;29.30;21.00;;;;;;5017883;28;20022;-85
2022/06/17 18:21:25;;;;;;;0.73;0.68;;;29.20;21.50;;;;;;5037789;28;20124;-81
2022/06/17 18:23:54;;;;;;;0.47;0.43;;;29.10;21.80;;;;;;5038454;28;20025;-84
2022/06/17 18:26:24;;;;;;;1.88;0.52;;;29.00;22.10;;;;;;5055896;28;20482;-80
2022/06/17 18:28:50;;;;;;;2.33;0.52;;;28.90;21.80;;;;;;5038748;28;20354;-86
2022/06/17 18:31:17;;;;;;;0.73;0.50;;;28.80;22.70;;;;;;5038919;28;20021;-80